Etusivu
METAR-TAF:

METAR-TAF

Lentoasemat :

Kuwait, Kuwait

Kuwaitin kansainvälinen lentoasema

Leveyspiiri: 29-13N, Pituuspiiri: 047-59E, korkeus merenpinnasta: 55 m

Tämänhetkinen sää

Tämä raportti tehtiin 1 tunti ja 1 minuuttia sitten, kello 04.00 UTC
Tuuli 6 kn lännestä
Lämpötila 29°C
Kosteus 22%
Ilmanpaine 1005 hPa
Näkyvyys 10 km tai enemmän
ei pilviä alle 1500 m:ssä eikä cumulonimbus-pilviä

METAR: OKBK 210400Z 27006KT CAVOK 29/05 Q1005 NOSIG

Aika: 08:01 (05:01 UTC)

Sääennuste

Tämä raportti tehtiin 6 tuntia ja 16 minuuttia sitten, kello 22.45 UTC
Ennuste voimassa 21. päivästä klo 00 UTC - 22. päivään klo 06 UTC
Tuuli 10 kn lännestä/lounaasta
Näkyvyys: 7000 m
selkeää
Ajoittain
21. päivästä klo 00 UTC - 21. päivään klo 06 UTC
Tuuli 3 kn eri suunnista
Näkyvyys: 4000 m
usvaa

TAF: OKBK 202245Z 2100/2206 25010KT 7000 SKC TEMPO 2100/2106 VRB03KT 4000 HZ

Säähavainnot ja -ennusteet yli 4000 lentoasemalta (METAR- ja TAF-raportit).

Käytössä olevat sääasemat on merkitty karttaan keltaisilla ja punaisilla pisteillä.

Aseta hiiri pisteen päälle nähdäksesi sääaseman nimen.

Klikkaa sitten nähdäksesi säähavainnot ja -ennusteet.

Kartan vaihtaminen: klikkaa mustalla rastilla varustettuja vihreitä pisteitä, niin voit zoomata sisään; viivalla varustettua vihreää pistettä, niin voit zoomata ulos tai vihreitä nuolia, niin pääset viereisille kartoille.


METAR-TAF: